• Join FlightAware (Why Join?)
  • Login
  • US Flag 
09:42AM EDT


 

Airport Tracker/Info


-or-


 

Live Flight TrackerFlight Track Log ✈ DAL571 ✈ 26-Apr-2013 ✈ KATL - TIST / STT

Flight Track Log - Related Links

Times and Time Zones

All times are in EDT time to prevent confusion due to time zone crossing. See the DAL571 flight status page for this flight to view local times or setup timezone preferences in your user account.

Time Position Orientation Groundspeed Altitude Reporting Facility
EDT Latitude Longitude Course Direction KTS MPH feet Rate Location/Type
10:08AM 33.6333 -84.4000 145° Southeast 166 191 2,400  Level Atlanta TRACON
10:09AM 33.6167 -84.3167 103° East 234 269 4,600 2,400 Climbing Atlanta TRACON
10:10AM 33.5667 -84.2667 140° Southeast 291 335 7,300 2,940 Climbing Atlanta TRACON
10:11AM 33.2400 -84.1231 140° Southeast  Level FlightAware Approximate
10:11AM 33.4833 -84.2833 189° South 304 350 10,200  Level Atlanta TRACON
10:12AM 33.1369 -84.0201 140° Southeast  Level FlightAware Approximate
10:12AM 33.3475 -84.2478 168° South 349 402 12,500  Level Atlanta Center
10:13AM 33.0351 -83.9263 145° Southeast  Level FlightAware Approximate
10:13AM 33.2619 -84.1581 139° Southeast 369 425 14,700  Level Atlanta Center
10:14AM 33.1681 -84.0611 139° Southeast 416 479 17,200 2,220 Climbing Atlanta Center
10:15AM 33.0719 -83.9669 141° Southeast 441 507 19,200 2,040 Climbing Atlanta Center
10:16AM 32.9697 -83.8803 145° Southeast 451 519 21,300 1,980 Climbing Atlanta Center
10:17AM 32.8608 -83.7917 146° Southeast 462 532 23,200 1,800 Climbing Atlanta Center
10:18AM 32.7500 -83.7006 145° Southeast 478 550 24,900 1,620 Climbing Atlanta Center
10:19AM 32.6414 -83.6022 143° Southeast 484 557 26,500 1,440 Climbing Atlanta Center
10:20AM 32.5344 -83.4944 140° Southeast 495 570 27,800 420 Climbing Atlanta Center
10:23AM 32.2706 -83.2292 140° Southeast 519 597 28,000  Climbing Jacksonville Center
10:24AM 32.1600 -83.1183 140° Southeast 524 603 28,000  Level Jacksonville Center
10:25AM 32.0578 -83.0200 141° Southeast 524 603 28,000  Level Jacksonville Center
10:26AM 31.9472 -82.9097 140° Southeast 524 603 28,000  Level Jacksonville Center
10:27AM 31.8344 -82.7997 140° Southeast 524 603 28,000 600 Level Jacksonville Center
10:28AM 31.7217 -82.6875 140° Southeast 524 603 29,300 960 Climbing Jacksonville Center
10:29AM 31.6108 -82.5803 141° Southeast 524 603 30,000 180 Climbing Jacksonville Center
10:31AM 31.3761 -82.3719 143° Southeast 524 603 30,000  Level Jacksonville Center
10:32AM 31.2547 -82.2728 145° Southeast 529 609 30,000 960 Level Jacksonville Center
10:33AM 31.1372 -82.1767 145° Southeast 529 609 32,000 1,800 Climbing Jacksonville Center
10:34AM 31.0197 -82.0781 144° Southeast 524 603 33,700 1,860 Climbing Jacksonville Center
10:35AM 30.9128 -81.9869 144° Southeast 510 587 35,800 1,140 Climbing Jacksonville Center
10:36AM 30.7992 -81.8914 144° Southeast 498 573 36,000 60 Climbing Jacksonville Center
10:37AM 30.6814 -81.7936 144° Southeast 504 580 36,000  Level Jacksonville Center
10:38AM 30.5658 -81.6958 144° Southeast 509 586 36,000  Level Jacksonville Center
10:39AM 30.4458 -81.5986 145° Southeast 521 600 36,000  Level Jacksonville Center
10:40AM 30.3258 -81.5111 148° Southeast 521 600 36,000  Level Jacksonville Center
10:41AM 30.1936 -81.4556 160° South 500 575 36,000  Level Jacksonville Center
10:42AM 30.0575 -81.4022 161° South 506 582 36,000  Level Jacksonville Center
10:43AM 29.9231 -81.3517 162° South 511 588 36,000  Level Jacksonville Center
10:44AM 29.7783 -81.2964 162° South 506 582 36,000  Level Jacksonville Center
10:45AM 29.6442 -81.2461 162° South 501 577 36,000  Level Jacksonville Center
10:46AM 29.5100 -81.1958 162° South 501 577 36,000  Level Jacksonville Center
10:47AM 29.3944 -81.1456 159° South 496 571 36,000  Level Jacksonville Center
10:48AM 29.2681 -81.0714 153° Southeast 496 571 36,000  Level Jacksonville Center
10:50AM 29.0547 -80.8447 137° Southeast 516 594 36,000  Level Miami Center
10:51AM 28.9517 -80.7297 136° Southeast 522 601 36,000  Level Miami Center
10:52AM 28.8522 -80.6194 136° Southeast 511 588 36,000  Level Miami Center
10:53AM 28.7581 -80.4719 126° Southeast 511 588 36,000  Level Miami Center
10:54AM 28.6758 -80.3367 125° Southeast 525 604 36,000  Level Miami Center
10:55AM 28.5936 -80.1994 124° Southeast 525 604 36,000  Level Miami Center
10:56AM 28.5214 -80.0769 124° Southeast 525 604 36,000  Level Miami Center
10:57AM 28.4386 -79.9400 124° Southeast 525 604 36,000  Level Miami Center
10:58AM 28.3481 -79.7911 125° Southeast 530 610 36,000  Level Miami Center
10:59AM 28.2650 -79.6569 125° Southeast 525 604 36,000  Level Miami Center
11:00AM 28.1819 -79.5206 125° Southeast 525 604 36,000  Level Miami Center
11:01AM 28.1011 -79.3847 124° Southeast 525 604 36,000  Level Miami Center
11:02AM 28.0156 -79.2486 125° Southeast 525 604 36,000  Level Miami Center
11:03AM 27.9322 -79.1153 125° Southeast 525 604 36,000  Level Miami Center
11:04AM 27.8528 -78.9822 124° Southeast 518 596 36,000  Level Miami Center
11:05AM 27.7711 -78.8517 125° Southeast 518 596 36,000 480 Level Miami Center
11:06AM 27.6956 -78.7283 125° Southeast 524 603 37,000 480 Climbing Miami Center
11:07AM 27.6053 -78.5839 125° Southeast 524 603 37,000  Level Miami Center
11:08AM 27.5317 -78.4492 122° Southeast 518 596 37,000  Level Miami Center
11:09AM 27.4497 -78.3122 124° Southeast 513 590 37,000  Level Miami Center
11:10AM 27.3717 -78.1756 123° Southeast 513 590 37,000  Level Miami Center
11:11AM 27.2914 -78.0369 123° Southeast 518 596 37,000  Level Miami Center
11:12AM 27.2131 -77.9097 125° Southeast 512 589 37,000  Level Miami Center
11:13AM 27.1303 -77.7761 125° Southeast 512 589 37,000  Level Miami Center
11:14AM 27.0539 -77.6400 122° Southeast 512 589 37,000  Level Miami Center
11:15AM 26.9814 -77.5114 122° Southeast 519 597 37,000  Level Miami Center
11:16AM 26.8961 -77.3758 125° Southeast 509 586 37,000  Level Miami Center
11:17AM 26.8131 -77.2381 124° Southeast 515 593 37,000  Level Miami Center
11:18AM 26.7339 -77.1006 123° Southeast 516 594 37,000  Level Miami Center
11:19AM 26.6528 -76.9633 123° Southeast 521 600 37,000  Level Miami Center
11:20AM 26.5733 -76.8356 125° Southeast 516 594 37,000  Level Miami Center
11:21AM 26.4939 -76.7078 125° Southeast 511 588 37,000  Level Miami Center
11:22AM 26.4142 -76.5733 123° Southeast 511 588 37,000  Level Miami Center
11:23AM 26.3344 -76.4414 124° Southeast 517 595 37,000  Level Miami Center
11:24AM 26.2525 -76.3072 124° Southeast 517 595 37,000  Level Miami Center
11:25AM 26.1725 -76.1733 124° Southeast 512 589 37,000  Level Miami Center
11:26AM 26.0944 -76.0442 124° Southeast 512 589 37,000  Level Miami Center
11:27AM 26.0081 -75.9083 125° Southeast 518 596 37,000  Level Miami Center
11:28AM 25.9342 -75.7819 123° Southeast 518 596 37,000  Level Miami Center
11:29AM 25.8494 -75.6486 125° Southeast 515 593 37,000  Level Miami Center
11:30AM 25.7689 -75.5181 124° Southeast 509 586 37,000  Level Miami Center
11:31AM 25.6947 -75.4058 126° Southeast 514 592 37,000  Level Miami Center
11:32AM 25.6117 -75.2731 125° Southeast 519 597 37,000  Level Miami Center
11:33AM 25.5308 -75.1431 125° Southeast 524 603 37,000  Level Miami Center
11:34AM 25.4500 -75.0131 125° Southeast 516 594 37,000  Level Miami Center
11:35AM 25.3689 -74.8856 125° Southeast 516 594 37,000  Level Miami Center
11:36AM 25.2856 -74.7511 124° Southeast 516 594 37,000  Level Miami Center
11:37AM 25.2019 -74.6194 125° Southeast 516 594 37,000  Level Miami Center
11:38AM 25.1228 -74.4947 125° Southeast 510 587 37,000  Level Miami Center
11:39AM 25.0392 -74.3633 125° Southeast 515 593 37,000  Level Miami Center
11:40AM 24.9575 -74.2344 125° Southeast 515 593 37,000  Level Miami Center
11:41AM 24.8672 -74.0942 125° Southeast 515 593 37,000  Level Miami Center
11:42AM 24.7875 -73.9703 125° Southeast 515 593 37,000  Level Miami Center
11:43AM 24.7056 -73.8442 126° Southeast 515 593 37,000  Level Miami Center
11:44AM 24.6256 -73.7136 124° Southeast 515 593 37,000  Level Miami Center
11:45AM 24.5436 -73.5922 127° Southeast 510 587 37,000  Level Miami Center
11:46AM 24.4611 -73.4619 125° Southeast 510 587 37,000  Level Miami Center
11:47AM 24.3747 -73.3367 127° Southeast 515 593 37,000  Level Miami Center
11:48AM 24.2986 -73.2111 124° Southeast 510 587 37,000  Level Miami Center
11:49AM 24.2139 -73.0861 127° Southeast 510 587 37,000  Level Miami Center
11:50AM 24.1314 -72.9611 126° Southeast 510 587 37,000  Level Miami Center
11:51AM 24.0508 -72.8364 125° Southeast 510 587 37,000  Level Miami Center
11:52AM 23.9658 -72.7117 127° Southeast 518 596 37,000  Level Miami Center
11:53AM 23.8850 -72.5872 125° Southeast 512 589 37,000  Level Miami Center
11:54AM 23.8150 -72.4783 125° Southeast 501 577 37,000  Level Miami Center
11:55AM 23.7342 -72.3564 126° Southeast 501 577 37,000  Level Miami Center
11:56AM 23.6550 -72.2256 123° Southeast 501 577 37,000  Level Miami Center
11:57AM 23.5739 -72.1061 127° Southeast 506 582 37,000  Level Miami Center
11:58AM 23.4908 -71.9847 127° Southeast 506 582 37,000  Level Miami Center
11:59AM 23.4092 -71.8544 124° Southeast 506 582 37,000  Level Miami Center
12:00PM 23.3258 -71.7378 128° Southeast 506 582 37,000  Level Miami Center
12:01PM 23.2444 -71.6147 126° Southeast 506 582 37,000  Level Miami Center
12:02PM 23.1611 -71.4983 128° Southeast 506 582 37,000  Level Miami Center
12:03PM 23.0794 -71.3778 126° Southeast 506 582 37,000  Level Miami Center
12:04PM 22.9975 -71.2528 125° Southeast 506 582 37,000  Level Miami Center
12:05PM 22.9158 -71.1300 126° Southeast 506 582 37,000  Level Miami Center
12:06PM 22.8272 -70.9989 126° Southeast 501 577 37,000  Level Miami Center
12:07PM 22.7431 -70.8769 127° Southeast 501 577 37,000  Level Miami Center
12:08PM 22.6611 -70.7592 127° Southeast 501 577 37,000  Level Miami Center
12:09PM 22.5792 -70.6394 127° Southeast 501 577 37,000  Level Miami Center
12:10PM 22.4992 -70.5197 126° Southeast 501 577 37,000  Level Miami Center
12:11PM 22.4147 -70.3983 127° Southeast 501 577 37,000  Level Miami Center
12:12PM 22.3303 -70.2792 127° Southeast 501 577 37,000  Level Miami Center
12:13PM 22.2500 -70.1600 126° Southeast 506 582 37,000  Level Miami Center
12:14PM 22.1653 -70.0389 127° Southeast 506 582 37,000  Level Miami Center
12:15PM 22.0806 -69.9181 127° Southeast 506 582 37,000  Level Miami Center
12:16PM 21.9983 -69.8039 128° Southeast 506 582 37,000  Level Miami Center
12:17PM 21.9133 -69.6833 127° Southeast 500 575 37,000  Level Miami Center
12:18PM 21.8306 -69.5650 127° Southeast 505 581 37,000  Level Miami Center
12:19PM 21.7436 -69.4425 127° Southeast 505 581 37,000  Level Miami Center
12:20PM 21.6628 -69.3244 126° Southeast 505 581 37,000  Level Miami Center
12:21PM 21.5778 -69.2089 128° Southeast 500 575 37,000  Level Miami Center
12:22PM 21.4944 -69.0869 126° Southeast 500 575 37,000  Level Miami Center
12:23PM 21.4136 -68.9692 126° Southeast 505 581 37,000  Level Miami Center
12:24PM 21.3283 -68.8519 128° Southeast 505 581 37,000  Level Miami Center
12:25PM 21.2408 -68.7328 128° Southeast 500 575 37,000  Level Miami Center
12:26PM 21.1597 -68.6178 127° Southeast 500 575 37,000  Level Miami Center
12:27PM 21.0681 -68.4992 130° Southeast 500 575 37,000  Level Miami Center
12:28PM 20.9844 -68.3822 127° Southeast 500 575 37,000  Level Miami Center
12:29PM 20.8969 -68.2658 129° Southeast 500 575 37,000  Level Miami Center
12:30PM 20.8114 -68.1494 128° Southeast 500 575 37,000 -120 Level Miami Center
12:31PM 20.7236 -68.0358 130° Southeast 500 575 36,800 -780 Descending Miami Center
12:32PM 20.6358 -67.9175 128° Southeast 500 575 35,500 -900 Descending Miami Center
12:33PM 20.5617 -67.8253 131° Southeast 500 575 35,000 -300 Descending Miami Center
12:34PM 20.4692 -67.7011 128° Southeast 495 570 35,000  Level Miami Center
12:35PM 20.3789 -67.5836 129° Southeast 500 575 35,000  Level Miami Center
12:36PM 20.3000 -67.4667 126° Southeast 500 575 35,000  Level San Juan Center
12:37PM 20.2167 -67.3500 127° Southeast 500 575 35,000  Level San Juan Center
12:38PM 20.1167 -67.2333 132° Southeast 510 587 35,000  Level San Juan Center
12:39PM 20.0333 -67.1167 127° Southeast 500 575 35,000  Level San Juan Center
12:40PM 19.9500 -67.0000 127° Southeast 490 564 35,000  Level San Juan Center
12:41PM 19.8500 -66.8833 132° Southeast 510 587 35,000 -540 Level San Juan Center
12:42PM 19.7667 -66.7667 127° Southeast 500 575 34,000 -1,200 Descending San Juan Center
12:43PM 19.6833 -66.6500 127° Southeast 500 575 32,700 -1,140 Descending San Juan Center
12:44PM 19.5833 -66.5333 132° Southeast 510 587 31,800 -900 Descending San Juan Center
12:45PM 19.5000 -66.4167 127° Southeast 510 587 31,000 -1,680 Descending San Juan Center
12:46PM 19.4167 -66.3167 131° Southeast 490 564 28,500 -2,340 Descending San Juan Center
12:47PM 19.3167 -66.2000 132° Southeast 480 552 26,300 -2,340 Descending San Juan Center
12:48PM 19.2500 -66.1000 125° Southeast 470 541 23,900 -2,580 Descending San Juan Center
12:49PM 19.1667 -65.9833 127° Southeast 450 518 21,100 -2,940 Descending San Juan Center
12:50PM 19.0667 -65.8667 132° Southeast 450 518 18,100 -2,700 Descending San Juan Center
12:51PM 19.0000 -65.7667 125° Southeast 440 506 15,800 -2,340 Descending San Juan Center
12:52PM 18.9167 -65.6667 131° Southeast 410 472 13,500 -2,400 Descending San Juan Center
12:53PM 18.8333 -65.5833 137° Southeast 400 460 11,000 -1,920 Descending San Juan Center
12:54PM 18.7500 -65.5167 143° Southeast 380 437 9,700 -1,200 Descending San Juan Center
12:55PM 18.6833 -65.4667 145° Southeast 340 391 8,700 -1,440 Descending San Juan Center
12:56PM 18.6167 -65.4000 137° Southeast 320 368 6,900 -1,500 Descending San Juan Center
12:57PM 18.5333 -65.3500 150° Southeast 300 345 5,700 -1,200 Descending San Juan Center
12:58PM 18.4667 -65.3167 155° Southeast 280 322 4,600 -1,140 Descending San Juan Center
12:59PM 18.4167 -65.2500 128° Southeast 270 311 3,500 -840 Descending San Juan Center
01:00PM 18.3833 -65.1833 118° Southeast 240 276 3,000 -540 Descending San Juan Center